createdAt,value
2022-09-22T00:03:44.744Z,12.67
2022-09-22T00:07:41.698Z,12.84
2022-09-22T00:11:43.574Z,12.68
2022-09-22T00:15:46.451Z,12.65
2022-09-22T00:19:43.454Z,12.58
2022-09-22T00:23:42.724Z,12.73
2022-09-22T00:27:39.715Z,12.64
2022-09-22T00:31:40.487Z,12.76
2022-09-22T00:35:40.218Z,12.63
2022-09-22T00:39:37.723Z,12.62
2022-09-22T00:43:37.691Z,12.46
2022-09-22T00:47:43.641Z,12.47
2022-09-22T00:51:44.864Z,12.30
2022-09-22T00:55:53.545Z,12.11
2022-09-22T00:59:53.617Z,12.24
2022-09-22T01:03:50.952Z,12.20
2022-09-22T01:07:48.967Z,11.84
2022-09-22T01:11:45.966Z,12.09
2022-09-22T01:16:19.925Z,11.98
2022-09-22T01:21:00.070Z,12.07
2022-09-22T01:25:36.094Z,12.04
2022-09-22T01:30:00.708Z,11.88
2022-09-22T01:34:25.415Z,11.62
2022-09-22T01:38:49.417Z,11.70
2022-09-22T01:42:59.047Z,11.65
2022-09-22T01:47:12.081Z,11.62
2022-09-22T01:51:20.098Z,11.42
2022-09-22T01:55:26.453Z,11.50
2022-09-22T01:59:29.125Z,11.49
2022-09-22T02:04:07.035Z,11.52
2022-09-22T02:08:11.825Z,11.31
2022-09-22T02:12:08.857Z,11.39
2022-09-22T02:16:09.682Z,11.31
2022-09-22T02:20:07.036Z,11.17
2022-09-22T02:24:04.249Z,11.19
2022-09-22T02:28:02.628Z,11.18
2022-09-22T02:32:05.207Z,11.21
2022-09-22T02:36:50.102Z,11.15
2022-09-22T02:41:19.076Z,11.14
2022-09-22T02:45:26.573Z,11.00
2022-09-22T02:49:26.248Z,11.24
2022-09-22T02:53:23.666Z,11.15
2022-09-22T02:57:21.316Z,11.18
2022-09-22T03:01:18.382Z,11.23
2022-09-22T03:05:15.548Z,11.06
2022-09-22T03:09:12.719Z,11.12
2022-09-22T03:13:16.441Z,11.02
2022-09-22T03:17:13.999Z,11.11
2022-09-22T03:21:11.407Z,11.07
2022-09-22T03:25:11.016Z,11.10
2022-09-22T03:29:07.987Z,11.01
2022-09-22T03:33:05.021Z,10.93
2022-09-22T03:37:02.043Z,10.99
2022-09-22T03:40:59.337Z,11.00
2022-09-22T03:44:56.349Z,10.92
2022-09-22T03:48:53.450Z,10.90
2022-09-22T03:52:50.453Z,11.07
2022-09-22T03:56:48.298Z,10.88
2022-09-22T04:00:45.341Z,10.86
2022-09-22T04:04:42.573Z,10.82
2022-09-22T04:08:39.877Z,10.70
2022-09-22T04:12:37.375Z,10.70
2022-09-22T04:16:34.443Z,10.67
2022-09-22T04:20:31.562Z,10.62
2022-09-22T04:24:28.770Z,10.62
2022-09-22T04:28:25.731Z,10.54
2022-09-22T04:32:22.988Z,10.66
2022-09-22T04:36:19.966Z,10.73
2022-09-22T04:40:18.367Z,10.73
2022-09-22T04:44:15.464Z,10.75
2022-09-22T04:48:12.771Z,10.59
2022-09-22T04:52:10.087Z,10.71
2022-09-22T04:56:07.723Z,10.62
2022-09-22T05:00:06.305Z,10.59
2022-09-22T05:04:03.372Z,10.63
2022-09-22T05:08:00.336Z,10.52
2022-09-22T05:11:59.707Z,10.51
2022-09-22T05:15:56.833Z,10.45
2022-09-22T05:19:55.840Z,10.42
2022-09-22T05:23:52.839Z,10.77
2022-09-22T05:27:53.365Z,11.10
2022-09-22T05:31:50.407Z,11.08
2022-09-22T05:35:48.592Z,11.25
2022-09-22T05:39:45.541Z,11.52
2022-09-22T05:43:42.533Z,11.64
2022-09-22T05:47:40.696Z,11.70
2022-09-22T05:51:37.622Z,11.81
2022-09-22T05:55:35.316Z,11.72
2022-09-22T05:59:32.892Z,11.55
2022-09-22T06:03:30.001Z,11.55
2022-09-22T06:07:27.844Z,11.55
2022-09-22T06:11:24.831Z,11.56
2022-09-22T06:15:21.773Z,11.70
2022-09-22T06:19:18.746Z,11.75
2022-09-22T06:23:15.717Z,12.20
2022-09-22T06:27:12.722Z,12.44
2022-09-22T06:31:09.699Z,12.62
2022-09-22T06:35:08.445Z,13.00
2022-09-22T06:39:05.604Z,13.03
2022-09-22T06:43:12.141Z,13.28
2022-09-22T06:47:10.270Z,13.40
2022-09-22T06:51:07.352Z,13.40
2022-09-22T06:55:05.468Z,13.79
2022-09-22T06:59:10.664Z,14.05
2022-09-22T07:03:22.721Z,14.44
2022-09-22T07:07:19.791Z,14.47
2022-09-22T07:11:23.284Z,14.98
2022-09-22T07:15:20.949Z,15.52
2022-09-22T07:19:18.226Z,16.21
2022-09-22T07:23:21.389Z,16.52
2022-09-22T07:27:23.302Z,16.62
2022-09-22T07:31:27.788Z,17.11
2022-09-22T07:35:28.413Z,17.46
2022-09-22T07:39:25.857Z,17.52
2022-09-22T07:43:22.793Z,17.97
2022-09-22T07:47:39.714Z,18.18
2022-09-22T07:51:37.489Z,18.47
2022-09-22T07:55:36.787Z,18.84
2022-09-22T07:59:35.112Z,19.28
2022-09-22T08:03:32.413Z,19.79
2022-09-22T08:07:32.949Z,20.22
2022-09-22T08:11:30.652Z,19.70
2022-09-22T08:15:27.673Z,20.41
2022-09-22T08:19:24.746Z,20.53
2022-09-22T08:23:21.684Z,20.95
2022-09-22T08:27:19.165Z,21.26
2022-09-22T08:31:20.085Z,21.68
2022-09-22T08:35:17.572Z,21.99
2022-09-22T08:39:16.867Z,22.11
2022-09-22T08:43:15.584Z,22.76
2022-09-22T08:47:41.801Z,22.74
2022-09-22T08:51:55.201Z,22.33
2022-09-22T08:56:23.324Z,22.71
2022-09-22T09:00:21.150Z,22.76
2022-09-22T09:04:58.014Z,22.74
2022-09-22T09:09:06.859Z,22.56
2022-09-22T09:13:51.090Z,23.25
2022-09-22T09:17:52.012Z,23.90
2022-09-22T09:21:56.785Z,24.26
2022-09-22T09:25:56.548Z,25.01
2022-09-22T09:30:21.639Z,24.37
2022-09-22T09:34:24.419Z,24.66
2022-09-22T09:38:30.457Z,24.87
2022-09-22T09:42:35.410Z,24.87
2022-09-22T09:47:02.128Z,26.36
2022-09-22T09:51:05.922Z,26.62
2022-09-22T09:55:12.189Z,27.42
2022-09-22T09:59:34.688Z,27.07
2022-09-22T10:03:36.157Z,28.05
2022-09-22T10:07:45.914Z,29.93
2022-09-22T10:12:03.219Z,29.02
2022-09-22T10:16:21.999Z,30.24
2022-09-22T10:20:34.211Z,31.23
2022-09-22T10:24:33.505Z,31.03
2022-09-22T10:28:31.161Z,32.24
2022-09-22T10:32:28.140Z,33.87
2022-09-22T10:36:28.868Z,34.53
2022-09-22T10:40:28.480Z,34.74
2022-09-22T10:44:38.722Z,34.62
2022-09-22T10:48:49.334Z,35.15
2022-09-22T10:52:57.993Z,35.91
2022-09-22T10:57:09.531Z,34.51
2022-09-22T11:01:53.116Z,32.13
2022-09-22T11:07:25.445Z,30.07
2022-09-22T11:11:53.741Z,28.75
2022-09-22T11:16:15.500Z,28.23
2022-09-22T11:20:40.085Z,27.49
2022-09-22T11:25:09.932Z,27.12
2022-09-22T11:29:29.516Z,26.80
2022-09-22T11:34:24.054Z,27.07
2022-09-22T11:39:09.117Z,28.02
2022-09-22T11:43:20.259Z,30.94
2022-09-22T11:48:04.079Z,29.75
2022-09-22T11:52:58.512Z,29.02
2022-09-22T11:57:07.239Z,30.39
2022-09-22T12:01:13.483Z,31.69
2022-09-22T12:05:27.123Z,32.73
2022-09-22T12:09:39.735Z,33.36
2022-09-22T12:13:43.556Z,30.88
2022-09-22T12:18:13.996Z,30.57
2022-09-22T12:22:33.009Z,32.14
2022-09-22T12:26:37.270Z,32.76
2022-09-22T12:30:34.460Z,32.64
2022-09-22T12:34:40.496Z,30.91
2022-09-22T12:38:38.910Z,32.02
2022-09-22T12:42:41.746Z,32.28
2022-09-22T12:46:43.230Z,32.67
2022-09-22T12:50:43.951Z,32.93
2022-09-22T12:54:40.929Z,32.80
2022-09-22T12:58:40.580Z,31.84
2022-09-22T13:02:46.099Z,30.12
2022-09-22T13:06:42.981Z,29.96
2022-09-22T13:10:42.407Z,30.94
2022-09-22T13:15:15.154Z,31.89
2022-09-22T13:19:12.444Z,32.13
2022-09-22T13:23:13.157Z,31.86
2022-09-22T13:27:14.595Z,33.97
2022-09-22T13:31:14.267Z,33.67
2022-09-22T13:35:34.250Z,34.92
2022-09-22T13:39:38.033Z,35.05
2022-09-22T13:43:38.412Z,33.82
2022-09-22T13:47:36.515Z,32.38
2022-09-22T13:51:33.582Z,34.03
2022-09-22T13:55:38.293Z,35.45
2022-09-22T13:59:41.904Z,35.76
2022-09-22T14:03:38.886Z,34.28
2022-09-22T14:07:49.871Z,32.86
2022-09-22T14:11:57.203Z,33.51
2022-09-22T14:15:54.608Z,32.69
2022-09-22T14:20:10.206Z,33.41
2022-09-22T14:24:07.523Z,32.05
2022-09-22T14:28:04.709Z,33.18
2022-09-22T14:32:19.780Z,32.30
2022-09-22T14:36:22.539Z,30.50
2022-09-22T14:40:26.707Z,29.33
2022-09-22T14:44:49.661Z,27.69
2022-09-22T14:48:46.625Z,27.05
2022-09-22T14:53:12.221Z,26.36
2022-09-22T14:57:09.381Z,26.06
2022-09-22T15:01:48.626Z,25.86
2022-09-22T15:05:46.687Z,25.47
2022-09-22T15:09:43.509Z,24.97
2022-09-22T15:13:46.262Z,24.70
2022-09-22T15:18:05.267Z,24.73
2022-09-22T15:22:05.591Z,24.18
2022-09-22T15:26:03.746Z,24.15
2022-09-22T15:30:00.689Z,23.84
2022-09-22T15:34:01.591Z,24.26
2022-09-22T15:37:58.694Z,24.38
2022-09-22T15:41:55.874Z,24.60
2022-09-22T15:50:32.625Z,25.22
2022-09-22T15:54:30.384Z,25.49
2022-09-22T15:58:40.260Z,26.62
2022-09-22T16:02:40.108Z,27.56
2022-09-22T16:06:41.328Z,28.53
2022-09-22T16:10:38.495Z,28.87
2022-09-22T16:14:36.800Z,29.24
2022-09-22T16:18:35.448Z,29.83
2022-09-22T16:22:32.536Z,29.69
2022-09-22T16:26:33.587Z,29.73
2022-09-22T16:30:30.591Z,29.50
2022-09-22T16:34:27.873Z,29.53
2022-09-22T16:38:25.097Z,29.35
2022-09-22T16:42:23.895Z,28.86
2022-09-22T16:46:28.811Z,28.23
2022-09-22T16:50:25.893Z,27.84
2022-09-22T16:54:22.881Z,26.87
2022-09-22T16:58:20.659Z,26.48
2022-09-22T17:02:17.756Z,26.01
2022-09-22T17:06:18.693Z,25.24
2022-09-22T17:10:15.876Z,24.47
2022-09-22T17:14:21.486Z,23.67
2022-09-22T17:18:18.444Z,23.12
2022-09-22T17:22:15.451Z,22.49
2022-09-22T17:26:12.717Z,21.97
2022-09-22T17:30:11.030Z,21.54
2022-09-22T17:34:09.781Z,21.21
2022-09-22T17:38:06.802Z,20.77
2022-09-22T17:42:04.041Z,20.53
2022-09-22T17:46:02.257Z,20.14
2022-09-22T17:50:17.829Z,19.91
2022-09-22T17:54:44.031Z,19.73
2022-09-22T17:58:41.396Z,19.61
2022-09-22T18:02:39.068Z,19.45
2022-09-22T18:06:36.173Z,19.08
2022-09-22T18:10:34.241Z,18.92
2022-09-22T18:14:31.663Z,19.04
2022-09-22T18:18:28.608Z,18.73
2022-09-22T18:22:29.329Z,18.81
2022-09-22T18:26:37.810Z,18.60
2022-09-22T18:30:34.776Z,18.45
2022-09-22T18:34:34.533Z,18.15
2022-09-22T18:38:33.003Z,18.16
2022-09-22T18:42:31.165Z,18.15
2022-09-22T18:46:29.709Z,18.07
2022-09-22T18:50:27.152Z,17.81
2022-09-22T18:54:24.146Z,17.99
2022-09-22T18:58:21.208Z,17.75
2022-09-22T19:02:23.076Z,17.61
2022-09-22T19:06:21.012Z,17.53
2022-09-22T19:10:21.933Z,17.64
2022-09-22T19:14:20.020Z,17.39
2022-09-22T19:18:16.991Z,17.23
2022-09-22T19:22:13.957Z,17.31
2022-09-22T19:26:10.956Z,17.05
2022-09-22T19:30:10.052Z,17.03
2022-09-22T19:34:09.096Z,16.91
2022-09-22T19:38:06.078Z,16.84
2022-09-22T19:42:03.240Z,16.89
2022-09-22T19:46:00.298Z,16.80
2022-09-22T19:49:58.888Z,16.56
2022-09-22T19:53:55.887Z,16.53
2022-09-22T19:57:54.328Z,16.41
2022-09-22T20:01:51.660Z,16.35
2022-09-22T20:05:51.538Z,16.22
2022-09-22T20:09:48.482Z,15.91
2022-09-22T20:14:04.510Z,15.71
2022-09-22T20:18:01.502Z,16.04
2022-09-22T20:22:28.198Z,16.15
2022-09-22T20:26:28.199Z,15.89
2022-09-22T20:30:25.826Z,15.82
2022-09-22T20:34:23.287Z,15.83
2022-09-22T20:38:20.285Z,15.67
2022-09-22T20:42:17.615Z,15.71
2022-09-22T20:46:15.479Z,15.43
2022-09-22T20:50:12.629Z,15.16
2022-09-22T20:54:09.920Z,15.41
2022-09-22T20:58:06.923Z,15.15
2022-09-22T21:02:04.238Z,15.01
2022-09-22T21:06:05.221Z,15.05
2022-09-22T21:10:20.947Z,14.91
2022-09-22T21:14:17.986Z,14.93
2022-09-22T21:18:16.532Z,14.81
2022-09-22T21:22:14.143Z,14.48
2022-09-22T21:26:12.461Z,14.57
2022-09-22T21:30:09.997Z,14.32
2022-09-22T21:34:07.121Z,14.26
2022-09-22T21:38:07.421Z,14.45
2022-09-22T21:42:04.525Z,14.63
2022-09-22T21:46:08.993Z,14.68
2022-09-22T21:50:06.755Z,14.46
2022-09-22T21:54:05.569Z,14.52
2022-09-22T21:58:02.538Z,14.37
2022-09-22T22:02:00.103Z,14.50
2022-09-22T22:06:08.878Z,14.46
2022-09-22T22:10:06.393Z,14.29
2022-09-22T22:14:07.554Z,14.52
2022-09-22T22:18:04.645Z,14.41
2022-09-22T22:22:01.709Z,14.45
2022-09-22T22:26:02.930Z,14.12
2022-09-22T22:30:00.547Z,14.20
2022-09-22T22:33:57.520Z,14.09
2022-09-22T22:37:56.083Z,13.83
2022-09-22T22:41:55.381Z,13.61
2022-09-22T22:45:52.474Z,13.86
2022-09-22T22:49:49.552Z,13.92
2022-09-22T22:53:47.823Z,13.84
2022-09-22T22:57:44.835Z,13.77
2022-09-22T23:01:44.045Z,13.75
2022-09-22T23:05:43.108Z,13.70
2022-09-22T23:09:40.236Z,13.64
2022-09-22T23:13:45.013Z,13.65
2022-09-22T23:17:42.005Z,13.59
2022-09-22T23:21:39.021Z,13.50
2022-09-22T23:25:37.690Z,13.43
2022-09-22T23:29:34.670Z,13.30
2022-09-22T23:33:31.697Z,13.15
2022-09-22T23:37:28.668Z,13.32
2022-09-22T23:41:25.688Z,13.10
2022-09-22T23:45:22.697Z,12.83
2022-09-22T23:49:20.084Z,13.00
2022-09-22T23:53:20.972Z,13.11
2022-09-22T23:57:18.030Z,12.90
